Time;durP1;ratioP1;P1;durP2;ratioP2;P2;SDS_P1;SDS_P2;PMS_P1;PMS_P2;Temp;Humidity;BMP_temperature;BMP_pressure;BME280_temperature;BME280_humidity;BME280_pressure;Samples;Min_cycle;Max_cycle;Signal;HPM_P1;HPM_P2
2022/10/12 00:01:21;;;;;;;4.73;2.70;;;13.00;99.90;;;;;;4991908;28;20542;-52
2022/10/12 00:03:48;;;;;;;3.27;2.87;;;13.10;99.90;;;;;;4991524;28;20456;-52
2022/10/12 00:06:17;;;;;;;3.03;2.27;;;13.20;99.90;;;;;;4991761;28;20451;-52
2022/10/12 00:08:46;;;;;;;5.10;3.10;;;13.30;99.90;;;;;;4991686;28;20553;-53
2022/10/12 00:11:15;;;;;;;5.33;3.50;;;13.20;99.90;;;;;;4991509;28;20539;-53
2022/10/12 00:13:42;;;;;;;5.60;2.80;;;13.30;99.90;;;;;;4991443;28;20541;-52
2022/10/12 00:16:10;;;;;;;4.00;2.10;;;13.30;99.90;;;;;;4991792;28;20448;-53
2022/10/12 00:18:39;;;;;;;3.60;2.57;;;13.30;99.90;;;;;;4991515;28;20487;-52
2022/10/12 00:21:09;;;;;;;4.27;2.20;;;13.30;99.90;;;;;;4991250;28;20534;-53
2022/10/12 00:23:38;;;;;;;5.40;2.30;;;13.00;99.90;;;;;;4991301;28;20827;-52
2022/10/12 00:26:06;;;;;;;2.50;2.30;;;12.80;99.90;;;;;;4991603;28;20538;-52
2022/10/12 00:28:34;;;;;;;5.70;2.20;;;12.90;99.90;;;;;;4991299;28;20462;-52
2022/10/12 00:31:02;;;;;;;5.43;2.13;;;13.10;99.90;;;;;;4991529;28;20449;-51
2022/10/12 00:33:29;;;;;;;7.60;2.77;;;12.70;99.90;;;;;;4991226;28;20537;-53
2022/10/12 00:35:57;;;;;;;5.10;2.33;;;12.40;99.90;;;;;;4991123;28;20473;-52
2022/10/12 00:38:24;;;;;;;6.87;2.67;;;12.60;99.90;;;;;;4990927;28;20493;-53
2022/10/12 00:40:51;;;;;;;5.97;2.37;;;12.80;99.90;;;;;;4991373;28;20521;-52
2022/10/12 00:43:33;;;;;;;4.57;2.63;;;13.00;99.90;;;;;;4991066;28;20537;-53
2022/10/12 00:46:01;;;;;;;4.37;3.60;;;12.90;99.90;;;;;;4991042;28;20459;-52
2022/10/12 00:48:28;;;;;;;5.03;3.03;;;13.00;99.90;;;;;;4991059;28;20459;-52
2022/10/12 00:51:00;;;;;;;5.33;3.20;;;13.20;99.90;;;;;;4990717;28;20977;-53
2022/10/12 00:53:32;;;;;;;4.77;2.67;;;13.20;99.90;;;;;;4989265;28;20541;-53
2022/10/12 00:56:03;;;;;;;4.30;2.33;;;13.10;99.90;;;;;;4990974;28;20453;-53
2022/10/12 00:58:31;;;;;;;5.37;2.57;;;13.00;99.90;;;;;;4990775;28;20581;-52
2022/10/12 01:01:00;;;;;;;6.60;2.67;;;13.00;99.90;;;;;;4990622;28;20450;-53
2022/10/12 01:03:27;;;;;;;3.53;2.20;;;12.80;99.90;;;;;;4990668;28;20447;-52
2022/10/12 01:05:54;;;;;;;5.27;3.27;;;12.80;99.90;;;;;;4990941;28;20451;-53
2022/10/12 01:08:23;;;;;;;4.70;2.20;;;12.60;99.90;;;;;;4990789;28;20549;-53
2022/10/12 01:10:50;;;;;;;3.10;2.20;;;12.70;99.90;;;;;;4990653;28;20457;-53
2022/10/12 01:13:17;;;;;;;4.10;2.33;;;12.90;99.90;;;;;;4990431;28;20482;-53
2022/10/12 01:15:50;;;;;;;3.70;2.60;;;13.10;99.90;;;;;;4991063;28;20512;-52
2022/10/12 01:18:21;;;;;;;4.67;3.03;;;13.00;99.90;;;;;;4990668;28;20485;-52
2022/10/12 01:21:04;;;;;;;3.60;3.30;;;12.10;99.90;;;;;;4990208;28;20831;-52
2022/10/12 01:23:52;;;;;;;4.90;3.33;;;11.60;99.90;;;;;;4990430;28;20477;-54
2022/10/12 01:26:50;;;;;;;8.97;3.40;;;11.50;99.90;;;;;;4990739;28;20444;-53
2022/10/12 01:29:34;;;;;;;4.73;3.20;;;11.70;99.90;;;;;;4986517;28;20554;-54
2022/10/12 01:32:08;;;;;;;6.67;2.60;;;11.90;99.90;;;;;;4990572;28;20437;-52
2022/10/12 01:34:44;;;;;;;8.30;3.70;;;12.20;99.90;;;;;;4989889;28;20431;-52
2022/10/12 01:37:16;;;;;;;6.53;2.73;;;12.50;99.90;;;;;;4990471;28;20538;-52
2022/10/12 01:39:49;;;;;;;3.10;2.43;;;12.60;99.90;;;;;;4990393;28;20475;-53
2022/10/12 01:42:24;;;;;;;2.50;2.30;;;12.70;99.90;;;;;;4990492;28;20501;-52
2022/10/12 01:44:51;;;;;;;4.70;2.53;;;12.90;99.90;;;;;;4989831;28;20455;-52
2022/10/12 01:47:20;;;;;;;4.07;2.73;;;12.90;99.90;;;;;;4990356;28;20460;-52
2022/10/12 01:49:46;;;;;;;4.10;2.73;;;12.90;99.90;;;;;;4990243;28;20512;-53
2022/10/12 01:52:27;;;;;;;4.10;3.10;;;12.90;99.90;;;;;;4990295;28;20837;-52
2022/10/12 01:55:20;;;;;;;6.27;2.20;;;12.90;99.90;;;;;;4989968;28;20478;-53
2022/10/12 01:57:56;;;;;;;4.07;2.60;;;12.90;99.90;;;;;;4986338;28;20479;-53
2022/10/12 02:00:24;;;;;;;6.07;3.13;;;12.80;99.90;;;;;;4990871;28;20436;-53
2022/10/12 02:02:58;;;;;;;5.30;3.03;;;12.60;99.90;;;;;;4989845;28;20875;-55
2022/10/12 02:05:33;;;;;;;6.20;2.93;;;12.50;99.90;;;;;;4989646;28;20441;-52
2022/10/12 02:08:05;;;;;;;4.53;2.53;;;12.60;99.90;;;;;;4989762;28;20523;-53
2022/10/12 02:10:38;;;;;;;5.10;1.90;;;12.80;99.90;;;;;;4989898;28;20536;-52
2022/10/12 02:13:10;;;;;;;2.97;2.23;;;12.90;99.90;;;;;;4989565;28;20539;-52
2022/10/12 02:15:40;;;;;;;4.90;2.80;;;13.00;99.90;;;;;;4990047;28;20858;-52
2022/10/12 02:18:12;;;;;;;3.60;2.90;;;13.00;99.90;;;;;;4989774;28;20493;-52
2022/10/12 02:20:40;;;;;;;3.27;2.50;;;12.90;99.90;;;;;;4989352;28;20478;-52
2022/10/12 02:23:08;;;;;;;4.57;2.80;;;12.90;99.90;;;;;;4989300;28;20530;-53
2022/10/12 02:25:35;;;;;;;3.23;2.13;;;13.00;99.90;;;;;;4989397;28;20450;-53
2022/10/12 02:28:13;;;;;;;6.40;2.27;;;12.90;99.90;;;;;;4989267;28;20454;-52
2022/10/12 02:30:48;;;;;;;4.60;2.60;;;12.80;99.90;;;;;;4989473;28;20483;-52
2022/10/12 02:33:24;;;;;;;3.77;2.60;;;12.90;99.90;;;;;;4989196;28;20452;-52
2022/10/12 02:35:54;;;;;;;4.70;2.50;;;12.90;99.90;;;;;;4989473;28;20446;-52
2022/10/12 02:38:27;;;;;;;7.90;3.63;;;12.90;99.90;;;;;;4989624;28;20862;-53
2022/10/12 02:40:58;;;;;;;3.03;2.53;;;12.90;99.90;;;;;;4989214;28;20912;-52
2022/10/12 02:43:29;;;;;;;9.70;3.10;;;12.60;99.90;;;;;;4989496;28;20478;-52
2022/10/12 02:45:58;;;;;;;5.73;3.23;;;12.30;99.90;;;;;;4989819;28;20527;-52
2022/10/12 02:48:28;;;;;;;8.20;3.23;;;12.40;99.90;;;;;;4989264;28;20552;-52
2022/10/12 02:50:57;;;;;;;2.87;2.33;;;12.70;99.90;;;;;;4989317;28;20446;-52
2022/10/12 02:53:27;;;;;;;5.23;2.50;;;12.80;99.90;;;;;;4988619;28;20448;-53
2022/10/12 02:56:00;;;;;;;5.90;3.00;;;12.90;99.90;;;;;;4989109;28;20588;-53
2022/10/12 02:58:27;;;;;;;6.10;2.43;;;12.90;99.90;;;;;;4988863;28;20489;-51
2022/10/12 03:00:54;;;;;;;4.30;2.20;;;12.80;99.90;;;;;;4988953;28;21050;-52
2022/10/12 03:03:21;;;;;;;3.57;3.10;;;12.70;99.90;;;;;;4989186;28;20481;-52
2022/10/12 03:05:49;;;;;;;5.83;2.77;;;12.50;99.90;;;;;;4989413;28;20563;-52
2022/10/12 03:08:16;;;;;;;5.10;2.90;;;11.90;99.90;;;;;;4989223;28;20902;-53
2022/10/12 03:10:43;;;;;;;7.50;2.77;;;12.00;99.90;;;;;;4988967;28;20480;-52
2022/10/12 03:13:10;;;;;;;4.30;2.30;;;12.10;99.90;;;;;;4988414;28;21011;-53
2022/10/12 03:15:37;;;;;;;7.37;2.60;;;12.30;99.90;;;;;;4989120;28;20809;-52
2022/10/12 03:18:04;;;;;;;3.27;2.30;;;12.50;99.90;;;;;;4992096;28;20486;-52
2022/10/12 03:20:31;;;;;;;2.80;2.47;;;12.30;99.90;;;;;;4992093;28;21054;-52
2022/10/12 03:22:59;;;;;;;2.83;2.13;;;12.40;99.90;;;;;;4992269;28;20453;-52
2022/10/12 03:25:26;;;;;;;5.83;4.03;;;12.50;99.90;;;;;;4992626;28;20456;-52
2022/10/12 03:27:53;;;;;;;4.93;2.20;;;12.50;99.90;;;;;;4992101;28;20442;-52
2022/10/12 03:30:19;;;;;;;3.87;2.40;;;12.30;99.90;;;;;;4992128;28;20527;-52
2022/10/12 03:32:46;;;;;;;3.27;2.83;;;12.40;99.90;;;;;;4992405;28;20543;-52
2022/10/12 03:35:13;;;;;;;5.63;2.30;;;12.50;99.90;;;;;;4992158;28;20459;-53
2022/10/12 03:37:40;;;;;;;5.17;2.73;;;12.30;99.90;;;;;;4992021;28;20541;-52
2022/10/12 03:40:10;;;;;;;3.37;2.50;;;12.50;99.90;;;;;;4992128;28;20506;-53
2022/10/12 03:42:37;;;;;;;5.10;2.70;;;12.30;99.90;;;;;;4992275;28;20533;-52
2022/10/12 03:45:04;;;;;;;4.63;2.67;;;12.40;99.90;;;;;;4991788;28;20525;-52
2022/10/12 03:47:31;;;;;;;4.40;2.70;;;12.50;99.90;;;;;;4992054;28;20441;-52
2022/10/12 03:49:58;;;;;;;2.80;2.23;;;12.60;99.90;;;;;;4992222;28;20504;-52
2022/10/12 03:52:25;;;;;;;3.07;2.70;;;12.70;99.90;;;;;;4991806;28;20529;-52
2022/10/12 03:54:52;;;;;;;5.50;2.77;;;12.70;99.90;;;;;;4991711;28;20442;-53
2022/10/12 03:57:20;;;;;;;4.23;2.80;;;12.70;99.90;;;;;;4992179;28;20867;-52
2022/10/12 03:59:47;;;;;;;3.53;3.10;;;12.70;99.90;;;;;;4991427;28;20521;-52
2022/10/12 04:02:14;;;;;;;4.57;2.97;;;12.80;99.90;;;;;;4991746;28;20538;-52
2022/10/12 04:04:41;;;;;;;3.13;2.87;;;12.80;99.90;;;;;;4991520;28;20534;-53
2022/10/12 04:07:08;;;;;;;3.20;2.23;;;12.40;99.90;;;;;;4991671;28;20529;-53
2022/10/12 04:09:35;;;;;;;5.27;3.60;;;12.10;99.90;;;;;;4991983;28;20576;-52
2022/10/12 04:12:02;;;;;;;5.60;4.00;;;12.10;99.90;;;;;;4991924;28;20522;-52
2022/10/12 04:14:30;;;;;;;8.97;8.07;;;12.30;99.90;;;;;;4991276;28;20533;-52
2022/10/12 04:16:57;;;;;;;8.63;6.30;;;12.50;99.90;;;;;;4992005;28;20880;-52
2022/10/12 04:19:24;;;;;;;6.13;3.43;;;12.60;99.90;;;;;;4991292;28;20483;-52
2022/10/12 04:21:51;;;;;;;3.00;2.70;;;12.60;99.90;;;;;;4990938;28;20537;-52
2022/10/12 04:24:17;;;;;;;4.07;2.43;;;12.70;99.90;;;;;;4991492;28;20453;-52
2022/10/12 04:26:44;;;;;;;5.00;3.20;;;12.80;99.90;;;;;;4991276;28;20453;-52
2022/10/12 04:29:12;;;;;;;5.80;4.10;;;12.90;99.90;;;;;;4991079;28;20549;-52
2022/10/12 04:31:41;;;;;;;6.43;3.80;;;12.90;99.90;;;;;;4991287;28;20447;-52
2022/10/12 04:34:09;;;;;;;5.80;3.70;;;13.00;99.90;;;;;;4991142;28;20541;-52
2022/10/12 04:36:36;;;;;;;5.47;4.10;;;12.80;99.90;;;;;;4991306;28;20537;-52
2022/10/12 04:39:03;;;;;;;7.37;3.70;;;12.90;99.90;;;;;;4991072;28;20581;-52
2022/10/12 04:41:30;;;;;;;3.07;2.60;;;12.90;99.90;;;;;;4991284;28;20447;-52
2022/10/12 04:43:58;;;;;;;3.87;3.23;;;12.90;99.90;;;;;;4990817;28;20454;-52
2022/10/12 04:46:25;;;;;;;5.17;2.60;;;12.90;99.90;;;;;;4991136;28;20537;-52
2022/10/12 04:48:53;;;;;;;4.20;2.90;;;12.90;99.90;;;;;;4990692;28;20467;-53
2022/10/12 04:51:20;;;;;;;2.77;2.33;;;12.90;99.90;;;;;;4991249;28;20536;-52
2022/10/12 04:53:46;;;;;;;4.63;2.60;;;12.80;99.90;;;;;;4991098;28;20461;-53
2022/10/12 04:56:13;;;;;;;8.40;3.70;;;12.90;99.90;;;;;;4990942;28;20822;-52
2022/10/12 04:58:40;;;;;;;7.07;4.03;;;12.50;99.90;;;;;;4990652;28;20579;-53
2022/10/12 05:01:07;;;;;;;6.97;4.50;;;12.50;99.90;;;;;;4991233;28;20447;-52
2022/10/12 05:03:34;;;;;;;7.13;3.50;;;12.60;99.90;;;;;;4990916;28;20539;-52
2022/10/12 05:06:02;;;;;;;4.50;3.23;;;12.40;99.90;;;;;;4991107;28;20535;-52
2022/10/12 05:08:29;;;;;;;8.83;3.30;;;12.50;99.90;;;;;;4990886;28;20466;-52
2022/10/12 05:10:58;;;;;;;5.40;3.27;;;12.70;99.90;;;;;;4990932;28;20446;-52
2022/10/12 05:13:25;;;;;;;5.30;2.70;;;12.80;99.90;;;;;;4990228;28;20454;-52
2022/10/12 05:15:52;;;;;;;7.30;2.60;;;12.90;99.90;;;;;;4991049;28;20505;-52
2022/10/12 05:18:19;;;;;;;5.57;2.50;;;12.90;99.90;;;;;;4990413;28;21023;-52
2022/10/12 05:20:45;;;;;;;3.00;2.57;;;12.90;99.90;;;;;;4990338;28;20546;-53
2022/10/12 05:23:14;;;;;;;10.63;3.83;;;13.00;99.90;;;;;;4990213;28;20447;-52
2022/10/12 05:25:41;;;;;;;6.43;3.90;;;13.10;99.90;;;;;;5006226;28;20537;-53
2022/10/12 05:28:08;;;;;;;4.73;3.40;;;13.00;99.90;;;;;;5010089;28;20565;-53
2022/10/12 05:30:34;;;;;;;8.60;4.13;;;13.10;99.90;;;;;;5010194;28;20450;-52
2022/10/12 05:33:01;;;;;;;5.70;3.57;;;12.80;99.90;;;;;;5009484;28;20894;-53
2022/10/12 05:35:28;;;;;;;8.40;3.63;;;12.60;99.90;;;;;;5010337;28;20449;-53
2022/10/12 05:37:55;;;;;;;4.87;3.47;;;12.60;99.90;;;;;;5009978;28;20477;-52
2022/10/12 05:40:23;;;;;;;4.20;3.10;;;12.60;99.90;;;;;;5009022;28;20580;-52
2022/10/12 05:42:50;;;;;;;5.63;4.07;;;12.70;99.90;;;;;;5010900;28;20540;-52
2022/10/12 05:45:17;;;;;;;8.17;3.20;;;12.70;99.90;;;;;;5010217;28;20879;-53
2022/10/12 05:47:44;;;;;;;7.93;3.00;;;12.40;99.90;;;;;;5011698;28;20440;-53
2022/10/12 05:50:11;;;;;;;4.70;3.27;;;12.10;99.90;;;;;;5010430;28;20524;-53
2022/10/12 05:52:38;;;;;;;5.20;3.30;;;12.20;99.90;;;;;;5009845;28;20539;-53
2022/10/12 05:55:06;;;;;;;7.57;3.43;;;12.40;99.90;;;;;;5009576;28;20538;-53
2022/10/12 05:57:35;;;;;;;8.27;3.77;;;12.60;99.90;;;;;;5010031;28;20451;-53
2022/10/12 06:00:02;;;;;;;7.47;4.00;;;12.60;99.90;;;;;;5009468;28;20492;-53
2022/10/12 06:02:29;;;;;;;4.67;3.63;;;12.50;99.90;;;;;;5009798;28;20830;-53
2022/10/12 06:04:56;;;;;;;4.23;3.00;;;12.60;99.90;;;;;;5009328;28;20482;-53
2022/10/12 06:07:23;;;;;;;5.83;3.87;;;12.70;99.90;;;;;;5009485;28;20538;-52
2022/10/12 06:09:49;;;;;;;6.73;4.50;;;12.70;99.90;;;;;;5009378;28;20923;-53
2022/10/12 06:12:16;;;;;;;11.40;7.00;;;12.80;99.90;;;;;;5009501;28;20446;-53
2022/10/12 06:14:44;;;;;;;7.63;5.97;;;12.80;99.90;;;;;;5009209;28;20538;-52
2022/10/12 06:17:11;;;;;;;5.10;4.60;;;12.80;99.90;;;;;;5009399;28;20536;-52
2022/10/12 06:19:38;;;;;;;6.53;4.50;;;12.80;99.90;;;;;;5008977;28;20483;-52
2022/10/12 06:22:05;;;;;;;7.00;4.30;;;12.80;99.90;;;;;;5009279;28;20534;-54
2022/10/12 06:24:32;;;;;;;7.33;4.43;;;12.70;99.90;;;;;;5009235;28;20536;-53
2022/10/12 06:26:59;;;;;;;6.43;4.60;;;12.50;99.90;;;;;;5009296;28;20450;-52
2022/10/12 06:29:25;;;;;;;5.43;4.83;;;12.40;99.90;;;;;;5009229;28;20554;-54
2022/10/12 06:31:54;;;;;;;5.37;3.57;;;12.50;99.90;;;;;;5009285;28;20475;-52
2022/10/12 06:34:21;;;;;;;4.20;2.73;;;12.50;99.90;;;;;;5008642;28;20473;-53
2022/10/12 06:36:48;;;;;;;6.70;3.10;;;12.50;99.90;;;;;;5009494;28;20451;-52
2022/10/12 06:39:15;;;;;;;4.40;3.13;;;12.70;99.90;;;;;;5008919;28;20494;-52
2022/10/12 06:41:42;;;;;;;4.07;3.47;;;12.80;99.90;;;;;;5009049;28;20987;-52
2022/10/12 06:44:09;;;;;;;4.70;3.77;;;12.80;99.90;;;;;;5008793;28;20563;-53
2022/10/12 06:46:36;;;;;;;5.40;4.27;;;12.70;99.90;;;;;;5008930;28;20541;-53
2022/10/12 06:49:04;;;;;;;6.33;4.77;;;12.90;99.90;;;;;;5008741;28;20501;-53
2022/10/12 06:51:31;;;;;;;8.13;4.93;;;12.80;99.90;;;;;;5008799;28;20510;-52
2022/10/12 06:53:58;;;;;;;6.53;5.00;;;12.80;99.90;;;;;;5008507;28;20817;-52
2022/10/12 06:56:25;;;;;;;6.30;4.03;;;12.50;99.90;;;;;;5008662;28;21178;-52
2022/10/12 06:58:55;;;;;;;4.30;3.90;;;11.90;99.90;;;;;;5008381;28;20480;-53
2022/10/12 07:01:22;;;;;;;4.80;3.80;;;11.60;99.90;;;;;;5008672;28;20472;-54
2022/10/12 07:03:49;;;;;;;6.50;3.90;;;11.40;99.90;;;;;;5008739;28;20836;-53
2022/10/12 07:06:17;;;;;;;7.23;3.80;;;11.80;99.90;;;;;;5008661;28;21015;-53
2022/10/12 07:08:44;;;;;;;5.60;3.83;;;12.20;99.90;;;;;;5008868;28;20465;-53
2022/10/12 07:11:13;;;;;;;7.47;4.93;;;12.40;99.90;;;;;;5008382;28;20475;-52
2022/10/12 07:13:41;;;;;;;12.67;5.60;;;12.20;99.90;;;;;;5008308;28;20448;-54
2022/10/12 07:16:08;;;;;;;5.50;5.00;;;12.20;99.90;;;;;;5008640;28;20451;-52
2022/10/12 07:18:35;;;;;;;7.53;4.40;;;11.90;99.90;;;;;;5008423;28;21003;-53
2022/10/12 07:21:02;;;;;;;8.73;3.93;;;12.10;99.90;;;;;;5008090;28;20487;-52
2022/10/12 07:23:30;;;;;;;6.07;4.90;;;12.30;99.90;;;;;;5008246;28;20472;-52
2022/10/12 07:25:58;;;;;;;5.60;4.10;;;12.50;99.90;;;;;;5008170;28;20459;-52
2022/10/12 07:28:24;;;;;;;6.33;5.70;;;12.60;99.90;;;;;;5008551;28;20474;-52
2022/10/12 07:30:51;;;;;;;5.37;4.77;;;12.80;99.90;;;;;;5008311;28;20544;-53
2022/10/12 07:33:18;;;;;;;7.03;4.17;;;12.80;99.90;;;;;;5008438;28;20526;-52
2022/10/12 07:35:54;;;;;;;5.30;4.10;;;12.90;99.90;;;;;;5008334;28;20455;-52
2022/10/12 07:38:21;;;;;;;4.53;4.13;;;12.90;99.90;;;;;;5008506;28;20471;-52
2022/10/12 07:40:49;;;;;;;5.73;3.53;;;12.80;99.90;;;;;;5008139;28;20863;-52
2022/10/12 07:43:16;;;;;;;6.63;3.90;;;12.80;99.90;;;;;;5008072;28;20475;-52
2022/10/12 07:45:43;;;;;;;7.73;4.40;;;12.90;99.90;;;;;;5008342;28;20450;-52
2022/10/12 07:48:10;;;;;;;4.57;3.40;;;13.00;99.90;;;;;;5008099;28;21029;-52
2022/10/12 07:50:37;;;;;;;7.13;3.90;;;13.10;99.90;;;;;;5008282;28;20446;-52
2022/10/12 07:53:04;;;;;;;7.43;3.70;;;13.10;99.90;;;;;;5007938;28;20460;-52
2022/10/12 07:55:31;;;;;;;6.20;3.43;;;13.20;99.90;;;;;;5008084;28;20478;-52
2022/10/12 07:58:00;;;;;;;7.13;3.63;;;13.20;99.90;;;;;;5007702;28;20450;-52
2022/10/12 08:00:27;;;;;;;5.10;3.83;;;13.20;99.90;;;;;;5009022;28;20475;-53
2022/10/12 08:02:54;;;;;;;5.10;4.13;;;13.30;99.90;;;;;;5008653;28;20541;-53
2022/10/12 08:05:22;;;;;;;5.30;3.87;;;13.30;99.90;;;;;;5011492;28;20525;-53
2022/10/12 08:07:49;;;;;;;4.30;3.60;;;13.30;99.90;;;;;;5011207;28;20454;-53
2022/10/12 08:10:16;;;;;;;5.53;3.50;;;13.30;99.90;;;;;;5011369;28;20759;-52
2022/10/12 08:12:44;;;;;;;4.40;3.90;;;13.40;99.90;;;;;;5011097;28;20481;-53
2022/10/12 08:15:13;;;;;;;5.20;3.83;;;13.40;99.90;;;;;;5010993;28;20455;-53
2022/10/12 08:17:40;;;;;;;7.27;4.37;;;13.40;99.90;;;;;;5011196;28;20539;-52
2022/10/12 08:20:08;;;;;;;5.67;4.20;;;13.40;99.90;;;;;;5010651;28;20489;-54
2022/10/12 08:22:34;;;;;;;4.70;3.50;;;13.40;99.90;;;;;;5011036;28;20983;-53
2022/10/12 08:25:01;;;;;;;6.10;4.20;;;13.50;99.90;;;;;;5010768;28;21022;-53
2022/10/12 08:27:31;;;;;;;8.53;4.07;;;13.50;99.90;;;;;;5010766;28;20530;-52
2022/10/12 08:29:57;;;;;;;5.20;4.20;;;13.60;99.90;;;;;;5010975;28;20468;-53
2022/10/12 08:32:26;;;;;;;6.13;4.10;;;13.60;99.90;;;;;;5011218;28;20820;-52
2022/10/12 08:34:53;;;;;;;4.93;3.67;;;13.60;99.90;;;;;;5010810;28;20450;-53
2022/10/12 08:37:20;;;;;;;4.60;3.13;;;13.60;99.90;;;;;;5010889;28;20454;-52
2022/10/12 08:39:47;;;;;;;4.93;3.90;;;13.70;99.90;;;;;;5011008;28;20577;-53
2022/10/12 08:42:27;;;;;;;5.47;3.73;;;13.70;99.90;;;;;;5010708;28;20890;-52
2022/10/12 08:45:04;;;;;;;4.63;3.60;;;13.70;99.90;;;;;;5010527;28;20545;-51
2022/10/12 08:47:39;;;;;;;5.37;4.00;;;13.80;99.90;;;;;;5011030;28;20447;-51
2022/10/12 08:50:14;;;;;;;4.43;3.13;;;13.90;99.90;;;;;;5010688;28;20786;-51
2022/10/12 08:52:48;;;;;;;8.03;3.80;;;14.00;99.90;;;;;;5010477;28;20537;-52
2022/10/12 08:55:25;;;;;;;5.57;4.20;;;14.00;99.90;;;;;;5010858;28;20535;-51
2022/10/12 08:57:52;;;;;;;7.67;5.57;;;14.00;99.90;;;;;;5010351;28;20449;-50
2022/10/12 09:00:19;;;;;;;6.00;4.43;;;14.00;99.90;;;;;;5010467;28;20485;-51
2022/10/12 09:03:01;;;;;;;6.10;3.73;;;14.00;99.90;;;;;;5010334;28;20541;-51
2022/10/12 09:05:34;;;;;;;4.60;3.80;;;14.00;99.90;;;;;;5010596;28;20987;-51
2022/10/12 09:08:05;;;;;;;4.33;3.93;;;14.10;99.90;;;;;;5010484;28;20474;-51
2022/10/12 09:10:44;;;;;;;7.00;3.50;;;14.10;99.90;;;;;;5010234;28;20542;-53
2022/10/12 09:13:22;;;;;;;7.73;3.97;;;14.20;99.90;;;;;;5009797;28;20543;-51
2022/10/12 09:15:52;;;;;;;5.97;4.10;;;14.30;99.90;;;;;;5009826;28;20549;-51
2022/10/12 09:18:27;;;;;;;5.27;4.17;;;14.40;99.90;;;;;;5010050;28;20482;-51
2022/10/12 09:20:55;;;;;;;5.23;2.97;;;14.40;99.90;;;;;;5009858;28;20489;-52
2022/10/12 09:23:25;;;;;;;4.47;3.63;;;14.40;99.90;;;;;;5009803;28;20557;-51
2022/10/12 09:25:54;;;;;;;4.87;3.60;;;14.40;99.90;;;;;;5010061;28;20444;-51
2022/10/12 09:28:27;;;;;;;5.30;3.70;;;14.60;99.90;;;;;;5010377;28;20780;-51
2022/10/12 09:31:06;;;;;;;4.57;3.53;;;14.60;99.90;;;;;;5009943;28;20817;-52
2022/10/12 09:33:40;;;;;;;6.57;3.43;;;14.50;99.90;;;;;;5009818;28;20534;-51
2022/10/12 09:36:11;;;;;;;5.87;3.90;;;14.70;99.90;;;;;;5009810;28;20525;-52
2022/10/12 09:38:38;;;;;;;4.43;3.13;;;14.80;99.90;;;;;;5009495;28;20502;-53
2022/10/12 09:41:05;;;;;;;5.03;3.60;;;14.70;99.90;;;;;;5009594;28;20483;-51
2022/10/12 09:43:32;;;;;;;8.67;3.33;;;14.80;99.90;;;;;;5009621;28;20482;-51
2022/10/12 09:46:05;;;;;;;4.30;3.40;;;14.80;99.90;;;;;;5010021;28;20542;-51
2022/10/12 09:48:32;;;;;;;3.97;3.20;;;15.00;99.90;;;;;;5009670;28;20477;-51
2022/10/12 09:51:03;;;;;;;4.37;3.40;;;15.20;99.90;;;;;;5009692;28;20445;-51
2022/10/12 09:53:33;;;;;;;4.77;2.97;;;15.20;99.90;;;;;;5009428;28;20455;-51
2022/10/12 09:56:07;;;;;;;5.53;3.73;;;15.30;99.90;;;;;;5009765;28;20505;-51
2022/10/12 09:58:48;;;;;;;4.10;3.10;;;15.20;99.90;;;;;;5009474;28;20507;-51
2022/10/12 10:01:22;;;;;;;3.20;2.63;;;15.10;99.90;;;;;;5009788;28;20664;-51
2022/10/12 10:03:51;;;;;;;8.07;3.27;;;15.20;99.90;;;;;;5009388;28;20450;-52
2022/10/12 10:06:26;;;;;;;6.23;2.83;;;15.20;99.90;;;;;;5009808;28;20448;-51
2022/10/12 10:08:53;;;;;;;2.70;2.37;;;15.30;99.90;;;;;;5009173;28;20541;-51
2022/10/12 10:11:25;;;;;;;4.37;3.53;;;15.50;99.90;;;;;;5009254;28;20440;-51
2022/10/12 10:13:54;;;;;;;5.40;3.40;;;15.40;99.90;;;;;;5009509;28;20443;-51
2022/10/12 10:16:24;;;;;;;3.87;3.10;;;15.30;99.90;;;;;;5009175;28;20980;-51
2022/10/12 10:18:56;;;;;;;4.70;3.00;;;15.30;99.90;;;;;;5009248;28;20554;-51
2022/10/12 10:21:32;;;;;;;4.50;3.03;;;15.30;99.90;;;;;;5008753;28;20481;-51
2022/10/12 10:24:00;;;;;;;8.93;3.90;;;15.30;99.90;;;;;;5008914;28;20478;-51
2022/10/12 10:26:30;;;;;;;5.03;3.20;;;15.20;99.90;;;;;;5008987;28;20458;-51
2022/10/12 10:29:14;;;;;;;4.40;3.27;;;15.10;99.90;;;;;;5009326;28;20524;-51
2022/10/12 10:31:41;;;;;;;3.70;3.17;;;15.20;99.90;;;;;;5009263;28;20879;-51
2022/10/12 10:34:20;;;;;;;8.07;3.30;;;15.30;99.90;;;;;;5008856;28;20534;-51
2022/10/12 10:36:50;;;;;;;7.50;3.43;;;15.40;99.90;;;;;;5009493;28;20659;-51
2022/10/12 10:39:21;;;;;;;5.23;2.97;;;15.50;99.90;;;;;;5009182;28;20546;-52
2022/10/12 10:41:49;;;;;;;6.00;3.37;;;15.30;99.90;;;;;;5009112;28;20478;-51
2022/10/12 10:44:26;;;;;;;7.57;3.70;;;15.20;99.90;;;;;;5008603;28;20535;-52
2022/10/12 10:46:54;;;;;;;5.20;2.93;;;15.40;99.90;;;;;;5008835;28;20519;-51
2022/10/12 10:49:29;;;;;;;5.43;2.87;;;15.60;99.90;;;;;;5009069;28;20574;-51
2022/10/12 10:52:00;;;;;;;7.87;5.27;;;15.70;99.90;;;;;;5008771;28;20496;-51
2022/10/12 10:54:29;;;;;;;5.53;3.67;;;15.90;99.90;;;;;;5008200;28;20458;-51
2022/10/12 10:57:03;;;;;;;3.20;2.83;;;15.90;99.90;;;;;;5008761;28;20534;-51
2022/10/12 10:59:46;;;;;;;3.97;3.00;;;16.00;99.90;;;;;;5008851;28;20676;-51
2022/10/12 11:02:23;;;;;;;5.10;3.13;;;16.10;99.90;;;;;;5008659;28;20561;-51
2022/10/12 11:04:53;;;;;;;3.93;2.87;;;16.00;99.90;;;;;;5008421;28;20448;-51
2022/10/12 11:07:29;;;;;;;4.47;3.00;;;16.20;99.90;;;;;;5008259;28;20963;-51
2022/10/12 11:09:59;;;;;;;4.57;3.10;;;16.20;99.90;;;;;;5008618;28;20554;-51
2022/10/12 11:12:31;;;;;;;3.80;2.80;;;16.30;99.90;;;;;;5008501;28;20535;-51
2022/10/12 11:15:05;;;;;;;3.53;2.87;;;16.40;99.90;;;;;;5008145;28;20569;-51
2022/10/12 11:17:35;;;;;;;8.33;3.37;;;16.40;99.90;;;;;;5008378;28;21028;-51
2022/10/12 11:20:18;;;;;;;6.40;3.07;;;16.40;99.90;;;;;;5007650;28;20495;-51
2022/10/12 11:22:50;;;;;;;5.57;3.27;;;16.40;99.90;;;;;;5008784;28;20526;-51
2022/10/12 11:25:23;;;;;;;5.63;2.50;;;16.30;99.90;;;;;;5008699;28;20534;-51
2022/10/12 11:27:51;;;;;;;4.07;3.50;;;16.40;99.90;;;;;;5008226;28;20953;-52
2022/10/12 11:30:21;;;;;;;5.83;3.20;;;16.50;99.90;;;;;;5008299;28;21008;-51
2022/10/12 11:32:53;;;;;;;4.00;3.37;;;16.50;99.90;;;;;;5008616;28;21013;-51
2022/10/12 11:35:26;;;;;;;4.50;2.80;;;16.50;99.90;;;;;;5008430;28;20455;-51
2022/10/12 11:37:57;;;;;;;4.43;2.30;;;16.70;99.90;;;;;;5009676;28;20444;-52
2022/10/12 11:40:28;;;;;;;6.63;2.97;;;16.90;99.90;;;;;;5012002;28;20439;-51
2022/10/12 11:42:57;;;;;;;4.80;3.40;;;16.70;99.90;;;;;;5011415;28;20447;-53
2022/10/12 11:45:29;;;;;;;6.73;3.13;;;16.70;99.90;;;;;;5011522;28;20493;-51
2022/10/12 11:48:00;;;;;;;4.43;3.10;;;16.60;99.90;;;;;;5011487;28;20450;-51
2022/10/12 11:50:32;;;;;;;3.97;2.90;;;16.70;99.90;;;;;;5011402;28;20451;-51
2022/10/12 11:53:05;;;;;;;6.00;4.00;;;16.70;99.90;;;;;;5011324;28;20457;-51
2022/10/12 11:55:45;;;;;;;3.70;3.33;;;16.80;99.90;;;;;;5011537;28;20475;-51
2022/10/12 11:58:19;;;;;;;4.30;3.10;;;16.80;99.90;;;;;;5011357;28;20490;-51
2022/10/12 12:01:03;;;;;;;4.03;2.87;;;16.90;99.90;;;;;;5011497;28;20574;-51
2022/10/12 12:03:38;;;;;;;3.63;2.90;;;17.00;99.90;;;;;;5011186;28;20478;-50
2022/10/12 12:06:46;;;;;;;3.70;3.00;;;16.90;99.90;;;;;;5011247;28;20959;-50
2022/10/12 12:09:38;;;;;;;3.37;3.07;;;16.90;99.90;;;;;;5013366;28;20470;-51
2022/10/12 12:12:23;;;;;;;4.83;2.40;;;17.00;99.90;;;;;;5011402;28;20439;-51
2022/10/12 12:15:19;;;;;;;5.30;2.93;;;17.10;99.90;;;;;;5010858;28;20534;-51
2022/10/12 12:18:10;;;;;;;3.93;2.63;;;17.00;99.90;;;;;;5011442;28;20537;-50
2022/10/12 12:21:04;;;;;;;4.93;2.57;;;17.20;99.90;;;;;;5010711;28;20458;-50
2022/10/12 12:23:38;;;;;;;6.43;2.70;;;17.10;99.90;;;;;;5011008;28;20448;-51
2022/10/12 12:26:14;;;;;;;4.20;2.70;;;17.20;99.90;;;;;;5010931;28;20534;-51
2022/10/12 12:28:44;;;;;;;6.20;3.57;;;17.20;99.90;;;;;;5011043;28;20471;-51
2022/10/12 12:31:15;;;;;;;5.93;2.67;;;17.20;99.90;;;;;;5010871;28;20438;-51
2022/10/12 12:33:45;;;;;;;5.50;2.70;;;17.20;99.90;;;;;;5010653;28;20451;-51
2022/10/12 12:36:15;;;;;;;2.93;2.20;;;17.20;99.90;;;;;;5010905;28;20455;-50
2022/10/12 12:38:49;;;;;;;3.50;2.33;;;17.30;99.90;;;;;;5010715;28;20517;-50
2022/10/12 12:41:19;;;;;;;3.73;3.17;;;17.50;99.90;;;;;;5010644;28;20843;-51
2022/10/12 12:43:57;;;;;;;5.87;3.10;;;17.40;99.90;;;;;;5010564;28;20453;-51
2022/10/12 12:46:46;;;;;;;4.33;2.73;;;17.40;99.90;;;;;;5010691;28;20504;-51
2022/10/12 12:49:28;;;;;;;5.30;3.17;;;17.60;99.90;;;;;;5010220;28;20556;-51
2022/10/12 12:51:58;;;;;;;6.17;2.90;;;17.30;99.90;;;;;;5010773;28;20477;-51
2022/10/12 12:54:27;;;;;;;6.57;3.00;;;17.50;99.90;;;;;;5010767;28;20496;-51
2022/10/12 12:57:33;;;;;;;4.70;2.27;;;17.60;99.90;;;;;;5011071;28;20547;-51
2022/10/12 13:00:21;;;;;;;3.33;2.80;;;17.80;99.90;;;;;;4974850;28;20479;-52
2022/10/12 13:03:23;;;;;;;5.57;2.73;;;17.50;99.90;;;;;;5010581;28;20476;-51